Time;durP1;ratioP1;P1;durP2;ratioP2;P2;SDS_P1;SDS_P2;PMS_P1;PMS_P2;Temp;Humidity;BMP_temperature;BMP_pressure;BME280_temperature;BME280_humidity;BME280_pressure;Samples;Min_cycle;Max_cycle;Signal;HPM_P1;HPM_P2
2022/11/16 00:02:07;;;;;;;4.32;2.20;;;11.10;99.90;;;;;;5055774;28;20116;-69
2022/11/16 00:04:34;;;;;;;3.35;1.90;;;11.00;99.90;;;;;;5055872;28;20417;-69
2022/11/16 00:07:03;;;;;;;7.32;2.70;;;11.00;99.90;;;;;;5055814;28;20052;-69
2022/11/16 00:09:31;;;;;;;4.90;2.00;;;11.00;99.90;;;;;;5055863;28;20025;-69
2022/11/16 00:12:03;;;;;;;3.15;1.90;;;11.00;99.90;;;;;;5055768;28;20036;-69
2022/11/16 00:14:33;;;;;;;10.07;2.58;;;11.00;99.90;;;;;;5055688;28;20330;-69
2022/11/16 00:17:01;;;;;;;3.20;1.80;;;11.00;99.90;;;;;;5039650;28;20021;-69
2022/11/16 00:19:29;;;;;;;6.80;2.08;;;11.00;99.90;;;;;;5059703;28;20362;-69
2022/11/16 00:21:56;;;;;;;4.53;2.20;;;11.00;99.90;;;;;;5059207;28;20388;-69
2022/11/16 00:24:24;;;;;;;6.22;2.20;;;10.90;99.90;;;;;;5059251;28;20079;-69
2022/11/16 00:26:54;;;;;;;3.67;1.70;;;10.90;99.90;;;;;;5041443;28;20108;-69
2022/11/16 00:29:24;;;;;;;3.10;2.00;;;10.90;99.90;;;;;;5059796;28;20021;-69
2022/11/16 00:31:52;;;;;;;4.68;2.30;;;10.90;99.90;;;;;;5041246;28;20167;-69
2022/11/16 00:34:20;;;;;;;3.47;2.10;;;10.80;99.90;;;;;;5041178;28;20025;-69
2022/11/16 00:36:49;;;;;;;4.07;1.85;;;10.80;99.90;;;;;;5041030;28;20017;-69
2022/11/16 00:39:17;;;;;;;3.85;2.10;;;10.80;99.90;;;;;;5059206;28;20096;-69
2022/11/16 00:41:45;;;;;;;4.85;2.10;;;10.80;99.90;;;;;;5058874;28;20104;-69
2022/11/16 00:44:12;;;;;;;5.35;2.05;;;10.70;99.90;;;;;;5041212;28;20413;-69
2022/11/16 00:46:40;;;;;;;3.88;2.25;;;10.70;99.90;;;;;;5058681;28;20071;-69
2022/11/16 00:49:08;;;;;;;4.60;2.47;;;10.70;99.90;;;;;;5059290;28;20075;-69
2022/11/16 00:51:36;;;;;;;3.70;2.03;;;10.70;99.90;;;;;;5041016;28;20029;-69
2022/11/16 00:54:05;;;;;;;3.47;1.90;;;10.70;99.90;;;;;;5058680;28;20052;-69
2022/11/16 00:56:33;;;;;;;5.22;2.42;;;10.70;99.90;;;;;;5058580;28;20025;-69
2022/11/16 00:59:00;;;;;;;3.83;1.90;;;10.70;99.90;;;;;;5059117;28;20067;-69
2022/11/16 01:01:28;;;;;;;3.97;1.98;;;10.60;99.90;;;;;;5058433;28;20025;-69
2022/11/16 01:03:55;;;;;;;3.92;2.05;;;10.60;99.90;;;;;;5058530;28;20382;-69
2022/11/16 01:06:23;;;;;;;4.95;2.25;;;10.60;99.90;;;;;;5040681;28;20029;-69
2022/11/16 01:08:51;;;;;;;4.63;2.08;;;10.60;99.90;;;;;;5058373;28;20059;-69
2022/11/16 01:14:06;;;;;;;7.82;2.88;;;10.50;99.90;;;;;;5058433;28;20036;-69
2022/11/16 01:16:34;;;;;;;6.63;2.33;;;10.50;99.90;;;;;;5058478;28;20360;-69
2022/11/16 01:19:02;;;;;;;6.28;2.78;;;10.50;99.90;;;;;;5058080;28;20317;-69
2022/11/16 01:21:29;;;;;;;3.85;2.40;;;10.40;99.90;;;;;;5058111;28;20021;-69
2022/11/16 01:23:56;;;;;;;4.57;2.70;;;10.40;99.90;;;;;;5040552;28;20310;-69
2022/11/16 01:26:24;;;;;;;5.25;2.50;;;10.40;99.90;;;;;;5058032;28;20332;-69
2022/11/16 01:28:51;;;;;;;6.03;2.47;;;10.30;99.90;;;;;;5058179;28;20021;-69
2022/11/16 01:31:19;;;;;;;4.20;2.60;;;10.30;99.90;;;;;;5058195;28;20044;-69
2022/11/16 01:33:46;;;;;;;8.30;2.50;;;10.30;99.90;;;;;;5040269;28;20029;-69
2022/11/16 01:36:16;;;;;;;6.53;2.40;;;10.20;99.90;;;;;;5058076;28;20299;-69
2022/11/16 01:38:44;;;;;;;2.90;2.30;;;10.20;99.90;;;;;;5057795;28;20045;-69
2022/11/16 01:41:17;;;;;;;5.15;2.80;;;10.20;99.90;;;;;;5058314;28;20017;-69
2022/11/16 01:43:54;;;;;;;5.97;2.45;;;10.20;99.90;;;;;;5039993;28;20444;-69
2022/11/16 01:46:23;;;;;;;4.18;2.28;;;10.10;99.90;;;;;;5039859;28;20052;-69
2022/11/16 01:48:57;;;;;;;8.30;3.00;;;10.10;99.90;;;;;;5057566;28;20021;-69
2022/11/16 01:51:25;;;;;;;5.07;2.80;;;10.10;99.90;;;;;;5039947;28;20035;-69
2022/11/16 01:53:53;;;;;;;5.05;2.55;;;10.00;99.90;;;;;;5057643;28;20341;-69
2022/11/16 01:56:23;;;;;;;5.20;2.60;;;10.00;99.90;;;;;;5039743;28;20294;-69
2022/11/16 01:58:51;;;;;;;5.53;2.55;;;10.00;99.90;;;;;;5057564;28;20025;-69
2022/11/16 02:01:18;;;;;;;5.47;2.45;;;9.90;99.90;;;;;;5039650;28;20028;-69
2022/11/16 02:03:46;;;;;;;5.07;2.72;;;9.90;99.90;;;;;;5057345;28;20024;-69
2022/11/16 02:06:20;;;;;;;4.82;2.90;;;9.90;99.90;;;;;;5057246;28;20025;-69
2022/11/16 02:12:30;;;;;;;4.95;2.70;;;9.90;99.90;;;;;;5057465;28;20032;-69
2022/11/16 02:15:22;;;;;;;16.95;5.93;;;9.90;99.90;;;;;;5057626;28;20147;-69
2022/11/16 02:18:25;;;;;;;7.22;3.40;;;9.90;99.90;;;;;;5057451;28;20017;-69
2022/11/16 02:21:18;;;;;;;9.55;3.72;;;9.90;99.90;;;;;;5057578;28;20033;-69
2022/11/16 02:24:03;;;;;;;7.88;3.45;;;9.80;99.90;;;;;;5057534;28;20021;-69
2022/11/16 02:27:11;;;;;;;6.88;3.38;;;9.80;99.90;;;;;;5039224;28;20025;-69
2022/11/16 02:29:52;;;;;;;5.65;3.00;;;9.80;99.90;;;;;;5057317;28;20051;-69
2022/11/16 02:32:42;;;;;;;6.57;3.08;;;9.80;99.90;;;;;;5055708;28;20040;-69
2022/11/16 02:35:32;;;;;;;8.98;3.47;;;9.70;99.90;;;;;;5056733;28;20436;-69
2022/11/16 02:38:11;;;;;;;5.90;3.08;;;9.70;99.90;;;;;;5056878;28;20031;-69
2022/11/16 02:40:43;;;;;;;5.28;3.40;;;9.70;99.90;;;;;;5055423;28;20052;-69
2022/11/16 02:43:30;;;;;;;7.05;3.58;;;9.70;99.90;;;;;;5056696;28;20021;-69
2022/11/16 02:46:04;;;;;;;4.65;2.97;;;9.70;99.90;;;;;;5057145;28;20035;-69
2022/11/16 02:48:38;;;;;;;7.90;4.05;;;9.70;99.90;;;;;;5057240;28;20436;-69
2022/11/16 02:51:07;;;;;;;6.18;3.22;;;9.70;99.90;;;;;;5038531;28;20033;-69
2022/11/16 02:53:42;;;;;;;6.20;3.33;;;9.70;99.90;;;;;;5056420;28;20076;-69
2022/11/16 02:56:13;;;;;;;5.72;3.50;;;9.70;99.90;;;;;;5057052;28;20013;-69
2022/11/16 02:58:40;;;;;;;7.53;3.97;;;9.70;99.90;;;;;;5038751;28;20025;-69
2022/11/16 03:01:23;;;;;;;5.78;3.47;;;9.70;99.90;;;;;;5055926;28;20108;-69
2022/11/16 03:03:57;;;;;;;9.32;3.78;;;9.70;99.90;;;;;;5056475;28;20040;-68
2022/11/16 03:06:33;;;;;;;6.85;3.40;;;9.60;99.90;;;;;;5055709;28;20090;-69
2022/11/16 03:09:08;;;;;;;8.18;3.80;;;9.60;99.90;;;;;;5056760;28;20032;-69
2022/11/16 03:11:58;;;;;;;6.72;3.38;;;9.60;99.90;;;;;;5056380;28;20028;-69
2022/11/16 03:14:35;;;;;;;6.75;3.60;;;9.60;99.90;;;;;;5038754;28;20052;-69
2022/11/16 03:17:05;;;;;;;7.60;3.80;;;9.60;99.90;;;;;;5056763;28;20099;-69
2022/11/16 03:19:44;;;;;;;5.50;3.42;;;9.60;99.90;;;;;;5056355;28;20070;-69
2022/11/16 03:22:38;;;;;;;7.68;3.45;;;9.60;99.90;;;;;;5056764;28;20467;-69
2022/11/16 03:25:09;;;;;;;7.18;3.67;;;9.50;99.90;;;;;;5056456;28;20056;-69
2022/11/16 03:27:49;;;;;;;6.55;4.05;;;9.50;99.90;;;;;;5056216;28;20093;-69
2022/11/16 03:30:28;;;;;;;6.97;3.42;;;9.50;99.90;;;;;;5055172;28;20029;-69
2022/11/16 03:33:16;;;;;;;6.03;3.90;;;9.50;99.90;;;;;;5056463;28;20359;-69
2022/11/16 03:35:56;;;;;;;9.13;3.78;;;9.50;99.90;;;;;;5056402;28;20071;-69
2022/11/16 03:38:26;;;;;;;7.07;3.78;;;9.50;99.90;;;;;;5056102;28;20295;-69
2022/11/16 03:41:02;;;;;;;6.28;3.95;;;9.50;99.90;;;;;;5056054;28;20025;-69
2022/11/16 03:43:31;;;;;;;6.65;3.78;;;9.50;99.90;;;;;;5056783;28;20048;-69
2022/11/16 03:45:58;;;;;;;6.20;3.28;;;9.50;99.90;;;;;;5056028;28;20063;-69
2022/11/16 03:48:32;;;;;;;8.25;3.42;;;9.50;99.90;;;;;;5055973;28;20021;-69
2022/11/16 03:50:59;;;;;;;6.38;3.78;;;9.50;99.90;;;;;;5056727;28;20481;-69
2022/11/16 03:53:27;;;;;;;5.15;3.33;;;9.50;99.90;;;;;;5059833;28;20048;-69
2022/11/16 03:55:54;;;;;;;5.65;3.63;;;9.40;99.90;;;;;;5042025;28;20021;-69
2022/11/16 03:58:22;;;;;;;8.23;4.45;;;9.50;99.90;;;;;;5060246;28;20017;-69
2022/11/16 04:00:49;;;;;;;8.52;3.83;;;9.40;99.90;;;;;;5060215;28;20045;-69
2022/11/16 04:03:17;;;;;;;6.85;4.25;;;9.50;99.90;;;;;;5059757;28;20021;-69
2022/11/16 04:25:25;;;;;;;10.93;3.85;;;9.40;99.90;;;;;;5059486;28;20028;-69
2022/11/16 04:39:13;;;;;;;8.13;3.60;;;9.40;99.90;;;;;;5059248;28;20051;-69
2022/11/16 04:47:05;;;;;;;9.77;4.53;;;9.40;99.90;;;;;;5058860;28;20031;-69
2022/11/16 04:47:13;;;;;;;7.78;4.50;;;9.40;99.90;;;;;;5058521;28;20440;-69
2022/11/16 04:49:40;;;;;;;7.93;4.28;;;9.40;99.90;;;;;;5041029;28;20333;-69
2022/11/16 04:52:07;;;;;;;7.20;3.90;;;9.40;99.90;;;;;;5058588;28;20025;-70
2022/11/16 04:54:35;;;;;;;12.30;3.90;;;9.40;99.90;;;;;;5059159;28;20037;-69
2022/11/16 04:57:02;;;;;;;8.63;4.85;;;9.40;99.90;;;;;;5058765;28;20104;-69
2022/11/16 04:59:30;;;;;;;8.50;5.28;;;9.40;99.90;;;;;;5058810;28;20017;-69
2022/11/16 05:02:10;;;;;;;6.95;4.47;;;9.40;99.90;;;;;;5058519;28;20043;-69
2022/11/16 05:04:42;;;;;;;9.10;4.85;;;9.40;99.90;;;;;;5058399;28;20116;-69
2022/11/16 05:07:13;;;;;;;6.70;4.47;;;9.30;99.90;;;;;;5058568;28;20431;-69
2022/11/16 05:09:46;;;;;;;8.93;5.20;;;9.40;99.90;;;;;;5058386;28;20107;-69
2022/11/16 05:12:18;;;;;;;10.60;5.18;;;9.40;99.90;;;;;;5058342;28;20131;-69
2022/11/16 05:14:46;;;;;;;8.40;4.50;;;9.30;99.90;;;;;;5058188;28;20029;-69
2022/11/16 05:17:14;;;;;;;9.32;5.32;;;9.30;99.90;;;;;;5058346;28;20076;-69
2022/11/16 05:22:27;;;;;;;9.05;4.95;;;9.30;99.90;;;;;;5058479;28;20024;-69
2022/11/16 05:24:54;;;;;;;9.65;5.22;;;9.40;99.90;;;;;;5058064;28;20021;-69
2022/11/16 05:27:24;;;;;;;7.63;5.07;;;9.30;99.90;;;;;;5058046;28;20013;-69
2022/11/16 05:29:52;;;;;;;10.23;4.68;;;9.30;99.90;;;;;;5057979;28;20017;-69
2022/11/16 05:32:20;;;;;;;8.50;5.15;;;9.30;99.90;;;;;;5040178;28;20021;-69
2022/11/16 05:34:47;;;;;;;8.88;4.60;;;9.30;99.90;;;;;;5058074;28;20059;-69
2022/11/16 05:37:16;;;;;;;8.48;4.57;;;9.30;99.90;;;;;;5057848;28;20432;-69
2022/11/16 05:39:44;;;;;;;9.75;5.00;;;9.30;99.90;;;;;;5058392;28;20074;-69
2022/11/16 05:42:11;;;;;;;7.88;4.60;;;9.30;99.90;;;;;;5058165;28;20013;-69
2022/11/16 05:44:39;;;;;;;8.38;4.35;;;9.30;99.90;;;;;;5058235;28;20060;-69
2022/11/16 05:47:06;;;;;;;12.43;4.72;;;9.30;99.90;;;;;;5057621;28;20078;-69
2022/11/16 05:49:33;;;;;;;9.68;5.05;;;9.30;99.90;;;;;;5057589;28;20029;-69
2022/11/16 05:52:00;;;;;;;7.30;4.57;;;9.30;99.90;;;;;;5057630;28;20029;-69
2022/11/16 05:54:30;;;;;;;10.07;5.15;;;9.30;99.90;;;;;;5057422;28;20036;-69
2022/11/16 05:56:57;;;;;;;10.43;4.93;;;9.30;99.90;;;;;;5057508;28;20021;-69
2022/11/16 05:59:26;;;;;;;9.13;5.10;;;9.30;99.90;;;;;;5039705;28;20027;-69
2022/11/16 06:01:57;;;;;;;11.38;4.82;;;9.30;99.90;;;;;;5057798;28;20020;-69
2022/11/16 06:04:25;;;;;;;8.30;5.28;;;9.30;99.90;;;;;;5057863;28;20091;-69
2022/11/16 06:06:52;;;;;;;9.65;5.50;;;9.40;99.90;;;;;;5057826;28;20025;-69
2022/11/16 06:09:20;;;;;;;10.15;4.85;;;9.30;99.90;;;;;;5057749;28;20029;-69
2022/11/16 06:11:47;;;;;;;8.88;5.28;;;9.30;99.90;;;;;;5057712;28;20406;-69
2022/11/16 06:14:14;;;;;;;9.15;5.22;;;9.30;99.90;;;;;;5057036;28;20060;-69
2022/11/16 06:16:42;;;;;;;8.77;5.43;;;9.30;99.90;;;;;;5057521;28;20021;-69
2022/11/16 06:19:09;;;;;;;11.00;5.22;;;9.40;99.90;;;;;;5057035;28;20041;-69
2022/11/16 06:21:37;;;;;;;8.35;4.95;;;9.40;99.90;;;;;;5057003;28;20324;-69
2022/11/16 06:24:07;;;;;;;9.07;5.25;;;9.40;99.90;;;;;;5057707;28;20047;-69
2022/11/16 06:26:35;;;;;;;8.98;5.07;;;9.40;99.90;;;;;;5056748;28;20333;-68
2022/11/16 06:29:03;;;;;;;8.25;4.90;;;9.40;99.90;;;;;;5056947;28;20024;-68
2022/11/16 06:31:32;;;;;;;13.80;5.10;;;9.40;99.90;;;;;;5057649;28;20325;-69
2022/11/16 06:33:59;;;;;;;10.98;5.63;;;9.40;99.90;;;;;;5056863;28;20017;-68
2022/11/16 06:36:27;;;;;;;11.70;5.00;;;9.40;99.90;;;;;;5057583;28;20306;-69
2022/11/16 06:38:54;;;;;;;10.40;5.43;;;9.40;99.90;;;;;;5056790;28;20017;-68
2022/11/16 06:41:22;;;;;;;9.30;5.30;;;9.40;99.90;;;;;;5056712;28;20017;-69
2022/11/16 06:43:49;;;;;;;10.77;5.22;;;9.40;99.90;;;;;;5056842;28;20031;-69
2022/11/16 06:46:16;;;;;;;13.63;5.85;;;9.40;99.90;;;;;;5056663;28;20043;-69
2022/11/16 06:48:45;;;;;;;10.50;5.13;;;9.40;99.90;;;;;;5057138;28;20360;-69
2022/11/16 06:51:12;;;;;;;12.60;6.22;;;9.40;99.90;;;;;;5056600;28;20429;-69
2022/11/16 06:53:40;;;;;;;8.02;5.35;;;9.40;99.90;;;;;;5063343;28;20059;-69
2022/11/16 06:56:12;;;;;;;9.07;4.93;;;9.40;99.90;;;;;;5075477;28;20494;-70
2022/11/16 06:58:40;;;;;;;8.48;4.85;;;9.40;99.90;;;;;;5077137;28;20031;-69
2022/11/16 07:01:08;;;;;;;9.27;5.03;;;9.40;99.90;;;;;;5077096;28;20405;-70
2022/11/16 07:03:36;;;;;;;12.45;5.53;;;9.40;99.90;;;;;;5075528;28;20036;-70
2022/11/16 07:06:12;;;;;;;8.45;4.90;;;9.40;99.90;;;;;;5076478;28;20107;-70
2022/11/16 07:08:40;;;;;;;8.63;5.00;;;9.40;99.90;;;;;;5076801;28;20075;-70
2022/11/16 07:11:09;;;;;;;10.13;5.53;;;9.40;99.90;;;;;;5076991;28;20027;-70
2022/11/16 07:13:37;;;;;;;8.55;5.03;;;9.40;99.90;;;;;;5077060;28;20032;-69
2022/11/16 07:16:07;;;;;;;8.38;5.03;;;9.40;99.90;;;;;;5076362;28;20029;-69
2022/11/16 07:18:39;;;;;;;8.85;5.55;;;9.40;99.90;;;;;;5076851;28;20024;-71
2022/11/16 07:21:14;;;;;;;9.75;5.03;;;9.40;99.90;;;;;;5076332;28;20028;-70
2022/11/16 07:23:43;;;;;;;8.20;5.05;;;9.50;99.90;;;;;;5075353;28;20417;-70
2022/11/16 07:26:11;;;;;;;8.10;5.07;;;9.40;99.90;;;;;;5078355;28;20314;-70
2022/11/16 07:28:39;;;;;;;10.82;5.47;;;9.40;99.90;;;;;;5079233;28;20052;-70
2022/11/16 07:31:09;;;;;;;8.25;5.22;;;9.40;99.90;;;;;;5080271;28;20029;-70
2022/11/16 07:33:37;;;;;;;9.50;5.05;;;9.40;99.90;;;;;;5080402;28;20021;-71
2022/11/16 07:36:07;;;;;;;9.30;5.40;;;9.40;99.90;;;;;;5079106;28;20016;-69
2022/11/16 07:38:35;;;;;;;10.10;5.60;;;9.50;99.90;;;;;;5080195;28;20492;-69
2022/11/16 07:41:03;;;;;;;8.07;4.75;;;9.50;99.90;;;;;;5080615;28;20024;-71
2022/11/16 07:43:31;;;;;;;8.75;5.20;;;9.50;99.90;;;;;;5079082;28;20325;-71
2022/11/16 07:46:07;;;;;;;10.20;5.63;;;9.50;99.90;;;;;;5079975;28;20039;-71
2022/11/16 07:48:34;;;;;;;7.78;4.82;;;9.50;99.90;;;;;;5079955;28;20028;-69
2022/11/16 07:51:08;;;;;;;7.90;4.47;;;9.50;99.90;;;;;;5062269;28;20039;-70
2022/11/16 07:53:36;;;;;;;9.07;5.50;;;9.50;99.90;;;;;;5078585;28;20044;-71
2022/11/16 07:56:05;;;;;;;10.80;5.70;;;9.50;99.90;;;;;;5079772;28;20020;-71
2022/11/16 07:58:34;;;;;;;9.57;5.25;;;9.50;99.90;;;;;;5080042;28;20027;-71
2022/11/16 08:01:13;;;;;;;7.63;4.80;;;9.50;99.90;;;;;;5079698;28;20020;-69
2022/11/16 08:03:41;;;;;;;10.73;5.18;;;9.50;99.90;;;;;;5079749;28;20111;-71
2022/11/16 08:06:24;;;;;;;11.50;5.50;;;9.50;99.90;;;;;;5080127;28;20035;-71
2022/11/16 08:08:51;;;;;;;10.38;4.85;;;9.60;99.90;;;;;;5080116;28;20028;-71
2022/11/16 08:11:18;;;;;;;7.18;4.35;;;9.60;99.90;;;;;;5079467;28;20031;-71
2022/11/16 08:13:46;;;;;;;9.02;4.95;;;9.60;99.90;;;;;;5080076;28;20107;-71
2022/11/16 08:16:18;;;;;;;8.52;5.13;;;9.60;99.90;;;;;;5079977;28;20040;-71
2022/11/16 08:18:46;;;;;;;8.27;5.03;;;9.60;99.90;;;;;;5079901;28;20013;-69
2022/11/16 08:21:15;;;;;;;9.23;5.00;;;9.60;99.90;;;;;;5079333;28;20021;-70
2022/11/16 08:23:43;;;;;;;7.68;4.55;;;9.60;99.90;;;;;;5078297;28;20439;-70
2022/11/16 08:26:16;;;;;;;11.45;5.22;;;9.70;99.90;;;;;;5079198;28;20445;-69
2022/11/16 08:28:45;;;;;;;6.93;4.47;;;9.70;99.90;;;;;;5079248;28;20032;-69
2022/11/16 08:31:20;;;;;;;10.30;4.70;;;9.70;99.90;;;;;;5079183;28;20332;-69
2022/11/16 08:33:47;;;;;;;8.15;4.93;;;9.70;99.90;;;;;;5079228;28;20020;-75
2022/11/16 08:36:18;;;;;;;8.10;4.45;;;9.70;99.90;;;;;;5078157;28;20324;-70
2022/11/16 08:38:48;;;;;;;8.10;4.20;;;9.70;99.90;;;;;;5078570;28;20320;-70
2022/11/16 08:41:16;;;;;;;5.45;3.55;;;9.70;99.90;;;;;;5079285;28;20054;-70
2022/11/16 08:43:46;;;;;;;7.63;4.40;;;9.70;99.90;;;;;;5079642;28;20047;-71
2022/11/16 08:46:14;;;;;;;7.85;4.43;;;9.80;99.90;;;;;;5078807;28;20040;-69
2022/11/16 08:48:41;;;;;;;6.03;3.90;;;9.80;99.90;;;;;;5079404;28;20028;-70
2022/11/16 08:51:11;;;;;;;7.07;4.20;;;9.80;99.90;;;;;;5079043;28;20332;-71
2022/11/16 08:53:38;;;;;;;5.97;4.15;;;9.80;99.90;;;;;;5065354;28;20041;-70
2022/11/16 08:56:08;;;;;;;6.13;3.75;;;9.80;99.90;;;;;;5059202;28;20104;-71
2022/11/16 08:58:42;;;;;;;8.05;3.95;;;9.80;99.90;;;;;;5040936;28;20074;-71
2022/11/16 09:01:12;;;;;;;5.40;3.58;;;9.90;99.90;;;;;;5059385;28;20444;-71
2022/11/16 09:03:41;;;;;;;5.75;3.97;;;9.90;99.90;;;;;;5040934;28;20120;-71
2022/11/16 09:06:11;;;;;;;6.07;3.08;;;9.90;99.90;;;;;;5040732;28;20399;-71
2022/11/16 09:08:41;;;;;;;7.13;4.13;;;9.90;99.90;;;;;;5058452;28;20025;-71
2022/11/16 09:11:12;;;;;;;6.43;3.53;;;9.90;99.90;;;;;;5058912;28;20059;-71
2022/11/16 09:13:39;;;;;;;6.25;3.70;;;9.90;99.90;;;;;;5058377;28;20146;-71
2022/11/16 09:16:07;;;;;;;6.18;4.20;;;9.90;99.90;;;;;;5058799;28;20020;-70
2022/11/16 09:18:35;;;;;;;7.25;3.65;;;9.90;99.90;;;;;;5058762;28;20056;-71
2022/11/16 09:21:03;;;;;;;7.63;3.58;;;9.90;99.90;;;;;;5058448;28;20436;-71
2022/11/16 09:23:30;;;;;;;5.10;3.17;;;10.00;99.90;;;;;;5040562;28;20025;-70
2022/11/16 09:26:02;;;;;;;6.25;3.03;;;10.00;99.90;;;;;;5058583;28;20429;-70
2022/11/16 09:28:29;;;;;;;4.22;3.15;;;10.00;99.90;;;;;;5058321;28;20029;-69
2022/11/16 09:31:04;;;;;;;6.72;3.55;;;10.00;99.90;;;;;;5058021;28;20024;-69
2022/11/16 09:33:33;;;;;;;6.35;3.50;;;10.00;99.90;;;;;;5057921;28;20417;-68
2022/11/16 09:36:06;;;;;;;5.90;3.75;;;10.10;99.90;;;;;;5057872;28;20033;-69
2022/11/16 09:38:40;;;;;;;6.90;3.88;;;10.10;99.90;;;;;;5023810;28;20021;-69
2022/11/16 09:41:33;;;;;;;5.43;3.42;;;10.20;99.90;;;;;;5057810;28;20060;-69
2022/11/16 09:44:36;;;;;;;4.68;3.13;;;10.20;99.90;;;;;;5040196;28;20025;-69
2022/11/16 09:47:09;;;;;;;5.65;3.47;;;10.20;99.90;;;;;;5058134;28;20079;-69
2022/11/16 09:49:47;;;;;;;7.95;3.90;;;10.20;99.90;;;;;;5057625;28;20032;-69
2022/11/16 09:52:44;;;;;;;5.22;3.72;;;10.30;99.90;;;;;;5057673;28;20021;-70
2022/11/16 09:55:43;;;;;;;4.70;3.30;;;10.30;99.90;;;;;;5057446;28;20033;-70
2022/11/16 09:58:30;;;;;;;5.85;3.83;;;10.30;99.90;;;;;;5057485;28;20029;-70
2022/11/16 10:01:15;;;;;;;9.88;4.78;;;10.30;99.90;;;;;;5057975;28;20025;-70
2022/11/16 10:03:48;;;;;;;7.05;3.70;;;10.30;99.90;;;;;;5057477;28;20017;-70
2022/11/16 10:06:47;;;;;;;5.90;3.80;;;10.30;99.90;;;;;;5057529;28;20096;-70
2022/11/16 10:09:15;;;;;;;6.05;4.00;;;10.30;99.90;;;;;;5057872;28;20309;-69
2022/11/16 10:12:01;;;;;;;7.47;3.78;;;10.30;99.90;;;;;;5057768;28;20100;-70
2022/11/16 10:15:05;;;;;;;4.57;3.00;;;10.20;99.90;;;;;;5039578;28;20098;-69
2022/11/16 10:18:07;;;;;;;4.32;3.08;;;10.20;99.90;;;;;;5057029;28;20036;-70
2022/11/16 10:20:56;;;;;;;4.82;3.05;;;10.20;99.90;;;;;;5057325;28;20315;-69
2022/11/16 10:23:45;;;;;;;5.15;3.45;;;10.20;99.90;;;;;;5039489;28;20103;-70
2022/11/16 10:26:35;;;;;;;5.10;2.88;;;10.30;99.90;;;;;;5057492;28;20036;-70
2022/11/16 10:29:39;;;;;;;5.13;3.03;;;10.30;99.90;;;;;;5056892;28;20021;-71
2022/11/16 10:32:19;;;;;;;4.82;3.05;;;10.30;99.90;;;;;;5039144;28;20025;-71
2022/11/16 10:34:55;;;;;;;5.20;3.08;;;10.30;99.90;;;;;;5057324;28;20025;-69
2022/11/16 10:37:28;;;;;;;4.18;2.70;;;10.40;99.90;;;;;;5056795;28;20075;-69
2022/11/16 10:39:56;;;;;;;4.75;2.90;;;10.50;99.90;;;;;;5023642;28;20337;-70
2022/11/16 10:42:38;;;;;;;7.88;3.20;;;10.50;99.90;;;;;;5057202;28;20049;-70
2022/11/16 10:45:19;;;;;;;7.15;3.10;;;10.60;99.90;;;;;;5056725;28;20072;-70
2022/11/16 10:47:59;;;;;;;4.63;3.13;;;10.70;99.90;;;;;;5056636;28;20021;-70
2022/11/16 10:50:41;;;;;;;4.05;2.83;;;10.80;99.90;;;;;;5038943;28;20488;-70
2022/11/16 10:53:14;;;;;;;5.07;3.00;;;10.90;99.90;;;;;;5056672;28;20052;-70
2022/11/16 10:55:42;;;;;;;4.88;2.78;;;11.00;99.90;;;;;;5057100;28;20013;-70
2022/11/16 10:58:10;;;;;;;3.85;2.35;;;11.00;99.90;;;;;;5056565;28;20021;-70
2022/11/16 11:00:48;;;;;;;4.55;2.95;;;11.00;99.90;;;;;;5056628;28;20014;-70
2022/11/16 11:03:30;;;;;;;3.60;2.55;;;11.00;99.90;;;;;;5038922;28;20075;-70
2022/11/16 11:05:59;;;;;;;5.05;3.17;;;11.10;99.90;;;;;;5056999;28;20036;-70
2022/11/16 11:08:30;;;;;;;3.50;2.30;;;11.10;99.90;;;;;;5057003;28;20104;-70
2022/11/16 11:11:02;;;;;;;5.60;3.10;;;11.10;99.90;;;;;;5056393;28;20029;-70
2022/11/16 11:13:29;;;;;;;20.67;10.63;;;11.00;99.90;;;;;;5038767;28;20413;-70
2022/11/16 11:16:16;;;;;;;10.90;6.15;;;11.00;99.90;;;;;;5022195;28;20052;-70
2022/11/16 11:18:43;;;;;;;5.68;3.17;;;10.90;99.90;;;;;;5056325;28;20021;-70
2022/11/16 11:21:19;;;;;;;5.38;3.13;;;10.90;99.90;;;;;;5038612;28;20025;-70
2022/11/16 11:23:55;;;;;;;5.10;3.13;;;10.90;99.90;;;;;;5056476;28;20021;-70
2022/11/16 11:26:47;;;;;;;5.67;3.37;;;10.90;99.90;;;;;;5056562;28;20025;-70
2022/11/16 11:29:28;;;;;;;4.45;2.95;;;10.80;99.90;;;;;;5055052;28;20029;-70
2022/11/16 11:32:05;;;;;;;5.20;2.88;;;10.80;99.90;;;;;;5056323;28;20055;-70
2022/11/16 11:34:43;;;;;;;4.40;2.60;;;10.80;99.90;;;;;;5056071;28;20025;-70
2022/11/16 11:37:28;;;;;;;4.00;2.70;;;10.70;99.90;;;;;;5056178;28;20479;-70
2022/11/16 11:40:17;;;;;;;5.28;2.88;;;10.70;99.90;;;;;;5056117;28;20055;-70
2022/11/16 11:42:54;;;;;;;4.85;3.17;;;10.70;99.90;;;;;;5056013;28;20028;-70
2022/11/16 11:45:36;;;;;;;4.88;2.80;;;10.70;99.90;;;;;;5056072;28;20020;-70
2022/11/16 11:48:41;;;;;;;3.95;2.92;;;10.80;99.90;;;;;;5056418;28;20017;-70
2022/11/16 11:51:26;;;;;;;4.20;2.65;;;10.90;99.90;;;;;;5056284;28;20379;-70
2022/11/16 11:53:58;;;;;;;3.88;2.70;;;11.00;99.90;;;;;;5056025;28;20041;-70
2022/11/16 11:56:29;;;;;;;3.85;2.55;;;11.20;99.90;;;;;;5056499;28;20096;-70
2022/11/16 11:58:56;;;;;;;3.65;2.60;;;11.20;99.90;;;;;;5039115;28;20039;-70
2022/11/16 12:01:33;;;;;;;4.22;2.60;;;11.30;99.90;;;;;;5055940;28;20048;-70
2022/11/16 12:04:37;;;;;;;4.72;2.70;;;11.30;99.90;;;;;;5056347;28;20032;-70
2022/11/16 12:07:44;;;;;;;5.75;3.65;;;11.30;99.90;;;;;;5056593;28;20045;-70
2022/11/16 12:10:52;;;;;;;4.88;2.60;;;11.30;99.90;;;;;;5038156;28;20325;-70
2022/11/16 12:13:29;;;;;;;4.07;2.40;;;11.40;99.90;;;;;;5058514;28;20029;-70
2022/11/16 12:16:18;;;;;;;4.45;2.35;;;11.40;99.90;;;;;;5060034;28;20084;-70
2022/11/16 12:18:54;;;;;;;9.07;3.00;;;11.40;99.90;;;;;;5041843;28;20028;-70
2022/11/16 12:21:46;;;;;;;5.45;2.53;;;11.40;99.90;;;;;;5059937;28;20047;-70
2022/11/16 12:24:28;;;;;;;3.53;2.40;;;11.40;99.90;;;;;;5059349;28;20025;-70
2022/11/16 12:27:30;;;;;;;4.97;2.85;;;11.40;99.90;;;;;;5042251;28;20021;-70
2022/11/16 12:30:14;;;;;;;5.43;2.95;;;11.40;99.90;;;;;;5059967;28;20056;-70
2022/11/16 12:33:24;;;;;;;4.20;2.70;;;11.40;99.90;;;;;;5059580;28;20031;-70
2022/11/16 12:36:02;;;;;;;4.25;2.72;;;11.40;99.90;;;;;;5017657;28;20026;-70
2022/11/16 12:38:43;;;;;;;5.60;3.05;;;11.50;99.90;;;;;;5055934;28;20102;-70
2022/11/16 12:41:35;;;;;;;4.57;2.92;;;11.50;99.90;;;;;;5059159;28;20025;-70
2022/11/16 12:44:11;;;;;;;4.78;2.67;;;11.60;99.90;;;;;;5059161;28;20025;-70
2022/11/16 12:47:00;;;;;;;4.72;2.75;;;11.70;99.90;;;;;;5058900;28;20036;-69
2022/11/16 12:49:52;;;;;;;8.07;3.22;;;11.70;99.90;;;;;;5059374;28;20025;-72
2022/11/16 12:52:39;;;;;;;4.13;2.30;;;11.80;99.90;;;;;;5058912;28;20028;-71
2022/11/16 12:55:41;;;;;;;6.47;2.85;;;11.90;99.90;;;;;;5041051;28;20037;-71
2022/11/16 12:58:19;;;;;;;5.20;2.80;;;12.00;99.90;;;;;;5040920;28;20025;-71
2022/11/16 13:01:10;;;;;;;4.57;2.60;;;12.10;99.90;;;;;;5059121;28;20013;-71
2022/11/16 13:04:04;;;;;;;4.13;2.83;;;12.10;99.90;;;;;;5058787;28;20035;-71
2022/11/16 13:07:10;;;;;;;4.65;2.80;;;12.20;99.90;;;;;;5059048;28;20108;-71
2022/11/16 13:09:48;;;;;;;4.47;2.80;;;12.20;99.90;;;;;;5058714;28;20040;-70
2022/11/16 13:12:22;;;;;;;5.63;3.00;;;12.20;99.90;;;;;;5058579;28;20048;-70
2022/11/16 13:14:57;;;;;;;7.00;4.50;;;12.30;99.90;;;;;;5058083;28;20468;-70
2022/11/16 13:17:30;;;;;;;10.27;6.03;;;12.30;99.90;;;;;;5058710;28;20025;-72
2022/11/16 13:20:37;;;;;;;7.97;4.28;;;12.30;99.90;;;;;;5058246;28;20029;-73
2022/11/16 13:23:21;;;;;;;25.02;8.85;;;12.40;99.90;;;;;;5058563;28;20321;-71
2022/11/16 13:26:24;;;;;;;8.15;5.53;;;12.40;99.90;;;;;;5058746;28;20020;-69
2022/11/16 13:29:29;;;;;;;7.38;3.92;;;12.40;99.90;;;;;;5058853;28;20017;-70
2022/11/16 13:32:11;;;;;;;5.40;3.45;;;12.50;99.90;;;;;;5041904;28;20055;-69
2022/11/16 13:34:40;;;;;;;4.75;2.88;;;12.50;99.90;;;;;;5040310;28;20505;-70
2022/11/16 13:37:38;;;;;;;5.70;3.47;;;12.60;99.90;;;;;;5057981;28;20017;-70
2022/11/16 13:40:05;;;;;;;6.60;3.22;;;12.70;99.90;;;;;;5040156;28;20017;-69
2022/11/16 13:42:42;;;;;;;5.45;3.35;;;12.80;99.90;;;;;;5058521;28;20025;-70
2022/11/16 13:45:13;;;;;;;6.93;3.47;;;12.90;99.90;;;;;;5024915;28;20442;-70
2022/11/16 13:47:48;;;;;;;8.13;3.60;;;13.00;99.90;;;;;;5058031;28;20017;-72
2022/11/16 13:50:32;;;;;;;6.77;4.57;;;13.00;99.90;;;;;;5057701;28;20099;-71
2022/11/16 13:53:14;;;;;;;8.73;3.85;;;13.00;99.90;;;;;;5057619;28;20045;-70
2022/11/16 13:55:45;;;;;;;7.13;4.32;;;12.90;99.90;;;;;;5058081;28;20021;-70
2022/11/16 13:58:21;;;;;;;7.03;3.38;;;12.80;99.90;;;;;;5057567;28;20063;-71
2022/11/16 14:01:00;;;;;;;6.25;3.45;;;12.80;99.90;;;;;;5057437;28;20024;-70
2022/11/16 14:03:39;;;;;;;6.53;4.15;;;12.70;99.90;;;;;;5039722;28;20469;-71
2022/11/16 14:06:30;;;;;;;5.72;3.63;;;12.60;99.90;;;;;;5057313;28;20078;-69
2022/11/16 14:08:58;;;;;;;7.68;4.43;;;12.60;99.90;;;;;;5057351;28;20138;-70
2022/11/16 14:11:31;;;;;;;5.28;3.33;;;12.50;99.90;;;;;;5057820;28;20025;-70
2022/11/16 14:14:04;;;;;;;5.07;3.42;;;12.50;99.90;;;;;;5057192;28;20043;-69